createdAt,value
2019-03-15T00:02:23.115Z,14.11
2019-03-15T00:07:30.785Z,13.74
2019-03-15T00:12:38.430Z,11.73
2019-03-15T00:17:46.055Z,11.70
2019-03-15T00:22:53.648Z,11.38
2019-03-15T00:28:01.393Z,12.76
2019-03-15T00:33:09.025Z,13.04
2019-03-15T00:38:16.760Z,11.91
2019-03-15T00:43:24.400Z,14.32
2019-03-15T00:48:32.109Z,15.88
2019-03-15T00:53:39.751Z,12.48
2019-03-15T00:58:47.385Z,13.78
2019-03-15T01:03:55.014Z,13.72
2019-03-15T01:09:02.696Z,14.60
2019-03-15T01:14:10.329Z,14.64
2019-03-15T01:19:17.987Z,12.56
2019-03-15T01:24:25.597Z,13.45
2019-03-15T01:29:33.278Z,14.84
2019-03-15T01:34:40.877Z,14.36
2019-03-15T01:39:48.584Z,16.47
2019-03-15T01:44:56.180Z,13.35
2019-03-15T01:50:03.857Z,14.95
2019-03-15T01:55:11.474Z,14.66
2019-03-15T02:00:19.131Z,13.57
2019-03-15T02:05:26.761Z,13.30
2019-03-15T02:10:34.474Z,13.35
2019-03-15T02:15:42.174Z,13.44
2019-03-15T02:20:49.811Z,13.41
2019-03-15T02:25:57.441Z,11.95
2019-03-15T02:31:05.122Z,12.90
2019-03-15T02:36:13.932Z,12.66
2019-03-15T02:41:19.872Z,12.04
2019-03-15T02:46:27.489Z,12.88
2019-03-15T02:51:35.167Z,12.31
2019-03-15T02:56:42.873Z,11.48
2019-03-15T03:01:50.472Z,10.65
2019-03-15T03:06:58.079Z,11.04
2019-03-15T03:12:05.776Z,11.62
2019-03-15T03:17:13.569Z,9.31
2019-03-15T03:22:20.576Z,10.58
2019-03-15T03:27:28.169Z,12.13
2019-03-15T03:32:35.814Z,12.24
2019-03-15T03:37:45.161Z,10.69
2019-03-15T03:42:50.643Z,12.01
2019-03-15T03:47:58.289Z,11.91
2019-03-15T03:53:05.975Z,12.14
2019-03-15T03:58:13.567Z,12.72
2019-03-15T04:03:21.283Z,11.81
2019-03-15T04:08:28.915Z,12.21
2019-03-15T04:13:36.766Z,9.35
2019-03-15T04:18:44.247Z,11.01
2019-03-15T04:23:51.883Z,10.61
2019-03-15T04:29:02.781Z,10.89
2019-03-15T04:34:00.450Z,10.83
2019-03-15T04:39:08.102Z,10.63
2019-03-15T04:44:15.711Z,11.34
2019-03-15T04:49:23.337Z,8.78
2019-03-15T04:54:30.984Z,10.08
2019-03-15T04:59:38.594Z,10.76
2019-03-15T05:04:46.290Z,9.53
2019-03-15T05:09:53.895Z,9.22
2019-03-15T05:15:01.530Z,10.98
2019-03-15T05:20:09.137Z,9.46
2019-03-15T05:25:16.847Z,12.05
2019-03-15T05:30:24.474Z,13.04
2019-03-15T05:35:32.130Z,10.36
2019-03-15T05:40:39.747Z,9.88
2019-03-15T05:45:47.442Z,10.25
2019-03-15T05:50:55.037Z,8.68
2019-03-15T05:56:02.713Z,12.31
2019-03-15T06:01:10.403Z,12.76
2019-03-15T06:06:18.102Z,11.67
2019-03-15T06:11:25.718Z,12.18
2019-03-15T06:16:33.398Z,12.91
2019-03-15T06:21:41.009Z,12.40
2019-03-15T06:26:48.636Z,16.21
2019-03-15T06:31:56.241Z,14.28
2019-03-15T06:37:03.943Z,13.07
2019-03-15T06:42:11.567Z,14.52
2019-03-15T06:47:19.231Z,12.75
2019-03-15T06:52:26.870Z,12.58
2019-03-15T06:57:34.522Z,16.19
2019-03-15T07:02:42.117Z,16.67
2019-03-15T07:07:49.931Z,13.06
2019-03-15T07:12:57.514Z,16.87
2019-03-15T07:18:05.211Z,15.86
2019-03-15T07:23:12.791Z,14.11
2019-03-15T07:28:20.446Z,14.57
2019-03-15T07:33:28.034Z,17.27
2019-03-15T07:38:35.710Z,14.05
2019-03-15T07:43:43.336Z,12.88
2019-03-15T07:48:51.018Z,10.98
2019-03-15T07:53:58.634Z,11.83
2019-03-15T07:59:06.316Z,11.91
2019-03-15T08:04:17.207Z,13.82
2019-03-15T08:09:21.150Z,12.56
2019-03-15T08:14:28.731Z,10.15
2019-03-15T08:19:36.359Z,9.68
2019-03-15T08:24:51.431Z,8.41
2019-03-15T08:29:52.786Z,9.63
2019-03-15T08:35:03.587Z,7.97
2019-03-15T08:40:07.531Z,8.90
2019-03-15T08:45:15.145Z,9.94
2019-03-15T08:50:24.564Z,8.54
2019-03-15T08:55:30.037Z,8.49
2019-03-15T09:00:37.685Z,11.83
2019-03-15T09:05:45.310Z,10.37
2019-03-15T09:10:52.949Z,8.31
2019-03-15T09:16:00.581Z,8.98
2019-03-15T09:21:08.346Z,7.71
2019-03-15T09:26:15.940Z,7.73
2019-03-15T09:31:23.594Z,7.99
2019-03-15T09:36:33.830Z,11.89
2019-03-15T09:41:40.209Z,9.81
2019-03-15T09:46:45.546Z,9.78
2019-03-15T09:51:53.195Z,10.60
2019-03-15T09:57:00.842Z,10.11
2019-03-15T10:02:08.471Z,12.16
2019-03-15T10:07:16.097Z,14.57
2019-03-15T10:12:26.842Z,11.42
2019-03-15T10:17:24.469Z,12.33
2019-03-15T10:22:32.175Z,11.76
2019-03-15T10:27:39.826Z,15.69
2019-03-15T10:32:47.461Z,15.37
2019-03-15T10:37:55.055Z,21.90
2019-03-15T10:43:02.751Z,18.57
2019-03-15T10:48:24.234Z,16.60
2019-03-15T10:53:17.545Z,16.74
2019-03-15T10:58:25.154Z,15.88
2019-03-15T11:03:32.793Z,15.01
2019-03-15T11:08:40.386Z,17.11
2019-03-15T11:13:48.050Z,17.32
2019-03-15T11:18:55.658Z,22.05
2019-03-15T11:24:03.398Z,20.69
2019-03-15T11:29:10.998Z,19.91
2019-03-15T11:34:18.681Z,14.11
2019-03-15T11:39:26.269Z,17.44
2019-03-15T11:44:33.882Z,18.71
2019-03-15T11:49:41.485Z,19.13
2019-03-15T11:54:49.947Z,20.25
2019-03-15T11:59:56.353Z,20.62
2019-03-15T12:05:03.977Z,21.61
2019-03-15T12:10:11.646Z,23.79
2019-03-15T12:15:19.170Z,22.49
2019-03-15T12:20:26.771Z,19.35
2019-03-15T12:25:34.472Z,18.24
2019-03-15T12:30:43.219Z,20.97
2019-03-15T12:35:49.393Z,20.94
2019-03-15T12:40:57.025Z,15.67
2019-03-15T12:46:04.749Z,16.00
2019-03-15T12:51:12.379Z,13.19
2019-03-15T12:56:20.033Z,15.05
2019-03-15T13:01:27.663Z,14.91
2019-03-15T13:06:35.333Z,13.93
2019-03-15T13:11:42.927Z,11.74
2019-03-15T13:16:50.460Z,11.39
2019-03-15T13:21:58.065Z,10.79
2019-03-15T13:27:07.715Z,11.29
2019-03-15T13:32:13.022Z,12.03
2019-03-15T13:37:20.765Z,11.64
2019-03-15T13:42:28.371Z,11.10
2019-03-15T13:47:36.005Z,8.77
2019-03-15T13:52:43.605Z,11.77
2019-03-15T13:57:51.238Z,8.98
2019-03-15T14:02:58.871Z,9.63
2019-03-15T14:08:11.623Z,8.70
2019-03-15T14:13:13.707Z,7.25
2019-03-15T14:18:21.781Z,9.43
2019-03-15T14:23:28.513Z,7.96
2019-03-15T14:28:36.165Z,8.82
2019-03-15T14:33:43.785Z,7.50
2019-03-15T14:38:51.638Z,8.15
2019-03-15T14:43:59.139Z,7.44
2019-03-15T14:49:06.812Z,8.35
2019-03-15T14:54:14.390Z,7.70
2019-03-15T14:59:22.040Z,9.20
2019-03-15T15:04:29.657Z,7.05
2019-03-15T15:09:37.329Z,6.42
2019-03-15T15:14:44.968Z,7.51
2019-03-15T15:19:52.687Z,6.75
2019-03-15T15:25:00.422Z,5.42
2019-03-15T15:30:08.101Z,5.89
2019-03-15T15:35:15.722Z,7.92
2019-03-15T15:40:23.423Z,7.02
2019-03-15T15:45:31.060Z,6.68
2019-03-15T15:50:38.695Z,7.50
2019-03-15T15:55:46.312Z,8.92
2019-03-15T16:00:53.973Z,10.04
2019-03-15T16:06:01.641Z,11.14
2019-03-15T16:11:09.335Z,14.22
2019-03-15T16:16:16.976Z,13.06
2019-03-15T16:21:24.785Z,11.86
2019-03-15T16:26:32.607Z,15.62
2019-03-15T16:31:40.344Z,11.99
2019-03-15T16:36:47.893Z,14.56
2019-03-15T16:41:55.655Z,15.64
2019-03-15T16:47:03.319Z,14.38
2019-03-15T16:52:10.947Z,14.04
2019-03-15T16:57:18.662Z,16.96
2019-03-15T17:02:26.327Z,17.37
2019-03-15T17:07:33.941Z,9.77
2019-03-15T17:12:41.736Z,8.15
2019-03-15T17:17:49.373Z,10.30
2019-03-15T17:22:57.030Z,9.60
2019-03-15T17:28:04.630Z,10.54
2019-03-15T17:33:12.365Z,8.52
2019-03-15T17:38:20.064Z,9.00
2019-03-15T17:43:27.714Z,10.27
2019-03-15T17:48:35.308Z,6.48
2019-03-15T17:53:43.110Z,9.01
2019-03-15T17:58:50.747Z,9.41
2019-03-15T18:03:58.540Z,7.49
2019-03-15T18:09:06.059Z,8.75
2019-03-15T18:14:13.752Z,11.31
2019-03-15T18:19:21.369Z,8.17
2019-03-15T18:24:29.091Z,14.14
2019-03-15T18:29:36.729Z,11.89
2019-03-15T18:34:44.624Z,11.76
2019-03-15T18:39:52.266Z,10.21
2019-03-15T18:45:00.012Z,12.31
2019-03-15T18:50:08.059Z,9.61
2019-03-15T18:55:15.787Z,13.45
2019-03-15T19:00:23.487Z,7.67
2019-03-15T19:05:31.153Z,13.56
2019-03-15T19:10:38.924Z,10.52
2019-03-15T19:15:46.605Z,14.78
2019-03-15T19:20:54.286Z,18.31
2019-03-15T19:26:01.887Z,12.53
2019-03-15T19:31:09.507Z,15.15
2019-03-15T19:36:17.193Z,17.00
2019-03-15T19:41:24.823Z,15.86
2019-03-15T19:46:32.486Z,16.32
2019-03-15T19:51:40.211Z,16.21
2019-03-15T19:56:47.952Z,17.74
2019-03-15T20:01:55.556Z,17.40
2019-03-15T20:07:03.269Z,16.34
2019-03-15T20:12:10.904Z,16.27
2019-03-15T20:17:18.634Z,19.05
2019-03-15T20:22:26.256Z,18.84
2019-03-15T20:27:34.007Z,18.12
2019-03-15T20:32:41.654Z,21.54
2019-03-15T20:37:49.411Z,17.67
2019-03-15T20:42:57.477Z,18.27
2019-03-15T20:48:05.235Z,16.41
2019-03-15T20:53:13.143Z,15.96
2019-03-15T20:58:22.311Z,17.36
2019-03-15T21:03:27.677Z,14.84
2019-03-15T21:08:35.409Z,15.40
2019-03-15T21:13:43.073Z,16.60
2019-03-15T21:18:50.844Z,14.64
2019-03-15T21:23:58.485Z,12.21
2019-03-15T21:29:06.259Z,11.20
2019-03-15T21:34:13.907Z,14.20
2019-03-15T21:39:21.689Z,12.78
2019-03-15T21:44:29.374Z,12.38
2019-03-15T21:49:37.065Z,13.28
2019-03-15T21:54:44.673Z,13.62
2019-03-15T21:59:52.410Z,14.82
2019-03-15T22:05:00.061Z,11.92
2019-03-15T22:10:07.888Z,12.83
2019-03-15T22:15:15.509Z,14.20
2019-03-15T22:20:23.285Z,14.50
2019-03-15T22:25:30.949Z,11.84
2019-03-15T22:30:41.195Z,14.55
2019-03-15T22:35:38.805Z,13.33
2019-03-15T22:40:46.547Z,13.60
2019-03-15T22:45:54.107Z,13.09
2019-03-15T22:51:01.788Z,16.23
2019-03-15T22:56:09.490Z,15.70
2019-03-15T23:01:29.655Z,13.49
2019-03-15T23:06:24.315Z,11.70
2019-03-15T23:11:32.043Z,12.64
2019-03-15T23:16:39.729Z,13.42
2019-03-15T23:21:47.310Z,12.22
2019-03-15T23:26:54.917Z,13.03
2019-03-15T23:32:02.591Z,13.28
2019-03-15T23:37:10.213Z,15.33
2019-03-15T23:42:17.884Z,13.36
2019-03-15T23:47:25.498Z,13.80
2019-03-15T23:52:33.123Z,12.94
2019-03-15T23:57:40.722Z,16.22
